Airfield :
LOGIN :

Register | Disclaimer

   EN    FR    IT 

 










Legend :    VFR   Marginal VFR   IFR   Intensive IFR   Very Intensive IFR
Visi :
Ceiling :
>= 8 km
>= 3000ft
5 to 8 km
1000 to 3000 ft
1500m to 5 km
500 to 1000 ft
800 to 1500m
200 to 500 ft
< 800m
< 200 ft
Symbols :   Thunderstorms  Fog  Heavy snow  Heavy precipitations  Wind > 20 kt
SIGMETs :     Misc.  Thunderstorms  Icing  Turbulence  Mountain Waves  Volcanic Ashes







- Airport Elevation : 102 ft
- IATA code : EXT
- Download approach charts


EGTE - Exeter

CURRENT METAR :
  • 251220Z 36011KT 310V050 9999 SCT045 11/M02 Q1015

EXPIRED METARs :
  • 251150Z 36012KT 320V030 9999 SCT048 09/M02 Q1015
  • 251120Z 01012KT 340V040 9999 SCT040 09/M02 Q1016
  • 251050Z 02014KT 350V050 9999 SCT040 09/M02 Q1016
  • 251020Z 01012KT 340V050 9999 SCT035 07/M01 Q1016
  • 250950Z 36011KT 320V040 9999 SCT030 08/M00 Q1015
  • 250920Z 01011G21KT 330V030 9999 VCSH SCT030 07/M00 Q1015

TAF TAF EGTE
Valid from the 25 at 12:00 until the 25 at 21:00 UTC


251103Z 2512/2521 33009KT 9999 SCT035
PROB30
TEMPO 2512/2521 9000 SHRA
PROB30
TEMPO 2512/2519 35015G25KT 7000 SHRAGS
No reported NOTAMs for that airfield.



MET'MAP, your aeronautical weather chart ! - Copyright ORBIFLY December 2007 - Disclaimer

ORBIFLY MET'MAP TEAM :

Programming & Development : Alexandra Zaïnal
Concept & Development : Baudouin d'Aumeries
Co-Development & Prog : Marc-Olivier Méhu
Technical & hardware support : Manuel Goepfert

Contact : metmap@orbifly.com




SOURCES & CREDITS :

   NOAA